MMGM/GYM METAR and TAF weather

Enter ICAO airport designator
Station Type Date Time Source
MMGM METAR 2023/01/29 17:53 UTC NOAA

MMGM 291753Z 00000KT 10SM SKC 19/10 A3000


Station Type Date Time Source
MMGM Decoded METAR 2023/01/29 17:53 UTC NOAA

Guaymas International Airport, Mexico (MMGM) 27-58N 110-56W
Jan 29, 2023 - 12:53 PM EST / 2023.01.29 1753 UTC
Wind: Calm:0
Visibility: 10 mile(s):0
Sky conditions: clear
Temperature: 66 F (19 C)
Dew Point: 50 F (10 C)
Relative Humidity: 55%
Pressure (altimeter): 30 in. Hg (1015 hPa)
ob: MMGM 291753Z 00000KT 10SM SKC 19/10 A3000
cycle: 18

Station Type Date Time Source
MMGM TAF 2023/01/29 18:40 UTC NOAA

TAF MMGM 291633Z 2918/3018 12010KT P6SM BKN100
FM292000 24012KT P6SM SKC
FM300300 12010KT P6SM SKC

Example: see airport list